sensor_id;sensor_type;location;lat;lon;timestamp;P1;durP1;ratioP1;P2;durP2;ratioP2
52786;SDS011;38661;53.152;5.846;2023-05-10T00:02:09;12.70;;;11.40;;
52786;SDS011;38661;53.152;5.846;2023-05-10T00:04:34;11.20;;;10.00;;
52786;SDS011;38661;53.152;5.846;2023-05-10T00:07:00;10.82;;;9.68;;
52786;SDS011;38661;53.152;5.846;2023-05-10T00:09:26;10.40;;;9.38;;
52786;SDS011;38661;53.152;5.846;2023-05-10T00:11:52;11.07;;;9.90;;
52786;SDS011;38661;53.152;5.846;2023-05-10T00:14:18;6.65;;;5.95;;
52786;SDS011;38661;53.152;5.846;2023-05-10T00:16:43;6.28;;;5.78;;
52786;SDS011;38661;53.152;5.846;2023-05-10T00:19:09;6.65;;;6.05;;
52786;SDS011;38661;53.152;5.846;2023-05-10T00:21:35;4.70;;;4.30;;
52786;SDS011;38661;53.152;5.846;2023-05-10T00:24:01;4.47;;;4.07;;
52786;SDS011;38661;53.152;5.846;2023-05-10T00:26:27;4.25;;;3.85;;
52786;SDS011;38661;53.152;5.846;2023-05-10T00:28:53;4.45;;;4.05;;
52786;SDS011;38661;53.152;5.846;2023-05-10T00:31:18;5.13;;;4.70;;
52786;SDS011;38661;53.152;5.846;2023-05-10T00:33:44;5.60;;;5.10;;
52786;SDS011;38661;53.152;5.846;2023-05-10T00:36:10;7.53;;;6.05;;
52786;SDS011;38661;53.152;5.846;2023-05-10T00:38:36;7.68;;;6.72;;
52786;SDS011;38661;53.152;5.846;2023-05-10T00:41:02;8.05;;;7.25;;
52786;SDS011;38661;53.152;5.846;2023-05-10T00:43:27;8.85;;;7.95;;
52786;SDS011;38661;53.152;5.846;2023-05-10T00:45:53;7.68;;;6.90;;
52786;SDS011;38661;53.152;5.846;2023-05-10T00:48:19;8.85;;;8.00;;
52786;SDS011;38661;53.152;5.846;2023-05-10T00:50:45;9.60;;;8.60;;
52786;SDS011;38661;53.152;5.846;2023-05-10T00:53:12;9.63;;;8.70;;
52786;SDS011;38661;53.152;5.846;2023-05-10T00:55:38;11.63;;;10.30;;
52786;SDS011;38661;53.152;5.846;2023-05-10T00:58:04;12.30;;;10.93;;
52786;SDS011;38661;53.152;5.846;2023-05-10T01:00:30;12.10;;;10.80;;
52786;SDS011;38661;53.152;5.846;2023-05-10T01:02:57;13.82;;;11.73;;
52786;SDS011;38661;53.152;5.846;2023-05-10T01:05:23;15.55;;;13.13;;
52786;SDS011;38661;53.152;5.846;2023-05-10T01:07:49;16.83;;;14.27;;
52786;SDS011;38661;53.152;5.846;2023-05-10T01:10:15;20.35;;;16.02;;
52786;SDS011;38661;53.152;5.846;2023-05-10T01:12:41;20.13;;;15.57;;
52786;SDS011;38661;53.152;5.846;2023-05-10T01:15:08;18.88;;;15.98;;
52786;SDS011;38661;53.152;5.846;2023-05-10T01:17:36;17.23;;;14.93;;
52786;SDS011;38661;53.152;5.846;2023-05-10T01:20:05;22.17;;;18.20;;
52786;SDS011;38661;53.152;5.846;2023-05-10T01:33:39;19.88;;;17.05;;
52786;SDS011;38661;53.152;5.846;2023-05-10T01:38:59;24.13;;;16.88;;
52786;SDS011;38661;53.152;5.846;2023-05-10T01:46:46;30.20;;;21.70;;
52786;SDS011;38661;53.152;5.846;2023-05-10T01:49:25;36.22;;;23.58;;
52786;SDS011;38661;53.152;5.846;2023-05-10T01:51:54;38.80;;;25.90;;
52786;SDS011;38661;53.152;5.846;2023-05-10T01:54:29;43.22;;;26.38;;
52786;SDS011;38661;53.152;5.846;2023-05-10T01:57:03;30.27;;;19.55;;
52786;SDS011;38661;53.152;5.846;2023-05-10T01:59:34;44.30;;;26.23;;
52786;SDS011;38661;53.152;5.846;2023-05-10T02:02:02;51.90;;;27.95;;
52786;SDS011;38661;53.152;5.846;2023-05-10T02:04:29;48.22;;;26.00;;
52786;SDS011;38661;53.152;5.846;2023-05-10T02:06:56;35.88;;;19.35;;
52786;SDS011;38661;53.152;5.846;2023-05-10T02:09:23;33.53;;;21.88;;
52786;SDS011;38661;53.152;5.846;2023-05-10T02:11:50;38.65;;;23.55;;
52786;SDS011;38661;53.152;5.846;2023-05-10T02:14:17;35.20;;;20.30;;
52786;SDS011;38661;53.152;5.846;2023-05-10T02:16:44;34.05;;;18.52;;
52786;SDS011;38661;53.152;5.846;2023-05-10T02:19:12;33.75;;;18.85;;
52786;SDS011;38661;53.152;5.846;2023-05-10T02:21:39;34.63;;;21.60;;
52786;SDS011;38661;53.152;5.846;2023-05-10T02:24:06;40.70;;;23.27;;
52786;SDS011;38661;53.152;5.846;2023-05-10T02:26:35;42.92;;;23.77;;
52786;SDS011;38661;53.152;5.846;2023-05-10T02:29:03;37.50;;;21.63;;
52786;SDS011;38661;53.152;5.846;2023-05-10T02:31:30;29.67;;;18.55;;
52786;SDS011;38661;53.152;5.846;2023-05-10T02:33:58;30.08;;;18.80;;
52786;SDS011;38661;53.152;5.846;2023-05-10T02:36:26;29.40;;;20.83;;
52786;SDS011;38661;53.152;5.846;2023-05-10T02:38:53;23.88;;;18.48;;
52786;SDS011;38661;53.152;5.846;2023-05-10T02:41:20;27.83;;;20.70;;
52786;SDS011;38661;53.152;5.846;2023-05-10T02:43:49;24.00;;;17.30;;
52786;SDS011;38661;53.152;5.846;2023-05-10T02:46:17;20.02;;;16.20;;
52786;SDS011;38661;53.152;5.846;2023-05-10T02:48:43;17.95;;;14.27;;
52786;SDS011;38661;53.152;5.846;2023-05-10T02:51:09;22.50;;;18.33;;
52786;SDS011;38661;53.152;5.846;2023-05-10T02:53:40;12.95;;;11.65;;
52786;SDS011;38661;53.152;5.846;2023-05-10T02:56:12;13.82;;;12.05;;
52786;SDS011;38661;53.152;5.846;2023-05-10T02:58:46;15.23;;;13.27;;
52786;SDS011;38661;53.152;5.846;2023-05-10T03:01:12;13.15;;;11.07;;
52786;SDS011;38661;53.152;5.846;2023-05-10T03:03:38;13.07;;;11.60;;
52786;SDS011;38661;53.152;5.846;2023-05-10T03:06:03;9.95;;;8.85;;
52786;SDS011;38661;53.152;5.846;2023-05-10T03:08:29;6.38;;;5.78;;
52786;SDS011;38661;53.152;5.846;2023-05-10T03:14:48;3.53;;;3.22;;
52786;SDS011;38661;53.152;5.846;2023-05-10T03:17:18;2.85;;;2.65;;
52786;SDS011;38661;53.152;5.846;2023-05-10T03:19:53;2.20;;;2.00;;
52786;SDS011;38661;53.152;5.846;2023-05-10T03:22:40;2.13;;;1.98;;
52786;SDS011;38661;53.152;5.846;2023-05-10T03:25:10;3.45;;;2.15;;
52786;SDS011;38661;53.152;5.846;2023-05-10T03:27:39;2.03;;;1.83;;
52786;SDS011;38661;53.152;5.846;2023-05-10T03:30:10;1.95;;;1.85;;
52786;SDS011;38661;53.152;5.846;2023-05-10T03:32:37;1.60;;;1.33;;
52786;SDS011;38661;53.152;5.846;2023-05-10T03:35:07;1.00;;;0.90;;
52786;SDS011;38661;53.152;5.846;2023-05-10T03:37:33;1.40;;;1.30;;
52786;SDS011;38661;53.152;5.846;2023-05-10T03:39:59;1.50;;;1.20;;
52786;SDS011;38661;53.152;5.846;2023-05-10T03:42:25;1.27;;;1.17;;
52786;SDS011;38661;53.152;5.846;2023-05-10T03:44:51;1.60;;;1.50;;
52786;SDS011;38661;53.152;5.846;2023-05-10T03:47:17;1.50;;;1.40;;
52786;SDS011;38661;53.152;5.846;2023-05-10T03:49:42;1.52;;;1.42;;
52786;SDS011;38661;53.152;5.846;2023-05-10T03:52:08;1.80;;;1.70;;
52786;SDS011;38661;53.152;5.846;2023-05-10T03:54:33;1.90;;;1.80;;
52786;SDS011;38661;53.152;5.846;2023-05-10T03:56:59;1.23;;;1.13;;
52786;SDS011;38661;53.152;5.846;2023-05-10T03:59:26;1.40;;;1.30;;
52786;SDS011;38661;53.152;5.846;2023-05-10T04:01:51;1.92;;;1.00;;
52786;SDS011;38661;53.152;5.846;2023-05-10T04:04:17;1.70;;;1.60;;
52786;SDS011;38661;53.152;5.846;2023-05-10T04:06:49;1.42;;;1.25;;
52786;SDS011;38661;53.152;5.846;2023-05-10T04:09:19;1.25;;;1.15;;
52786;SDS011;38661;53.152;5.846;2023-05-10T04:11:44;1.42;;;1.33;;
52786;SDS011;38661;53.152;5.846;2023-05-10T04:14:10;1.05;;;1.00;;
52786;SDS011;38661;53.152;5.846;2023-05-10T04:16:36;0.93;;;0.93;;
52786;SDS011;38661;53.152;5.846;2023-05-10T04:19:01;2.53;;;1.45;;
52786;SDS011;38661;53.152;5.846;2023-05-10T04:21:27;1.98;;;1.88;;
52786;SDS011;38661;53.152;5.846;2023-05-10T04:23:53;1.40;;;1.30;;
52786;SDS011;38661;53.152;5.846;2023-05-10T04:26:19;1.38;;;1.27;;
52786;SDS011;38661;53.152;5.846;2023-05-10T04:28:45;1.20;;;1.10;;
52786;SDS011;38661;53.152;5.846;2023-05-10T04:31:11;1.20;;;1.10;;
52786;SDS011;38661;53.152;5.846;2023-05-10T04:33:37;1.98;;;1.10;;
52786;SDS011;38661;53.152;5.846;2023-05-10T04:36:03;1.55;;;1.42;;
52786;SDS011;38661;53.152;5.846;2023-05-10T04:38:29;3.40;;;1.60;;
52786;SDS011;38661;53.152;5.846;2023-05-10T04:41:03;2.20;;;1.35;;
52786;SDS011;38661;53.152;5.846;2023-05-10T04:43:32;1.70;;;1.45;;
52786;SDS011;38661;53.152;5.846;2023-05-10T04:45:58;2.38;;;1.80;;
52786;SDS011;38661;53.152;5.846;2023-05-10T04:48:24;2.88;;;1.90;;
52786;SDS011;38661;53.152;5.846;2023-05-10T04:50:50;2.88;;;2.60;;
52786;SDS011;38661;53.152;5.846;2023-05-10T04:53:15;3.15;;;2.72;;
52786;SDS011;38661;53.152;5.846;2023-05-10T04:55:41;4.55;;;3.25;;
52786;SDS011;38661;53.152;5.846;2023-05-10T04:58:07;4.28;;;3.88;;
52786;SDS011;38661;53.152;5.846;2023-05-10T05:00:33;3.90;;;3.50;;
52786;SDS011;38661;53.152;5.846;2023-05-10T05:02:59;5.35;;;4.85;;
52786;SDS011;38661;53.152;5.846;2023-05-10T05:05:26;4.00;;;3.60;;
52786;SDS011;38661;53.152;5.846;2023-05-10T05:07:51;5.40;;;4.90;;
52786;SDS011;38661;53.152;5.846;2023-05-10T05:10:17;6.05;;;5.47;;
52786;SDS011;38661;53.152;5.846;2023-05-10T05:12:43;7.18;;;6.47;;
52786;SDS011;38661;53.152;5.846;2023-05-10T05:15:09;6.00;;;5.50;;
52786;SDS011;38661;53.152;5.846;2023-05-10T05:17:35;6.82;;;6.07;;
52786;SDS011;38661;53.152;5.846;2023-05-10T05:20:01;5.90;;;5.30;;
52786;SDS011;38661;53.152;5.846;2023-05-10T05:22:27;5.50;;;4.88;;
52786;SDS011;38661;53.152;5.846;2023-05-10T05:24:53;5.03;;;4.50;;
52786;SDS011;38661;53.152;5.846;2023-05-10T05:27:20;4.03;;;3.15;;
52786;SDS011;38661;53.152;5.846;2023-05-10T05:29:55;4.22;;;3.83;;
52786;SDS011;38661;53.152;5.846;2023-05-10T05:32:22;3.80;;;3.15;;
52786;SDS011;38661;53.152;5.846;2023-05-10T05:34:48;4.43;;;3.17;;
52786;SDS011;38661;53.152;5.846;2023-05-10T05:37:14;5.05;;;4.55;;
52786;SDS011;38661;53.152;5.846;2023-05-10T05:39:40;4.22;;;3.53;;
52786;SDS011;38661;53.152;5.846;2023-05-10T05:42:07;6.40;;;4.75;;
52786;SDS011;38661;53.152;5.846;2023-05-10T05:44:34;4.63;;;4.18;;
52786;SDS011;38661;53.152;5.846;2023-05-10T05:46:59;5.05;;;3.05;;
52786;SDS011;38661;53.152;5.846;2023-05-10T05:49:25;3.88;;;3.08;;
52786;SDS011;38661;53.152;5.846;2023-05-10T05:51:51;4.50;;;3.03;;
52786;SDS011;38661;53.152;5.846;2023-05-10T05:54:16;3.78;;;3.22;;
52786;SDS011;38661;53.152;5.846;2023-05-10T05:56:42;4.60;;;3.15;;
52786;SDS011;38661;53.152;5.846;2023-05-10T05:59:09;4.78;;;3.55;;
52786;SDS011;38661;53.152;5.846;2023-05-10T06:01:35;6.07;;;4.85;;
52786;SDS011;38661;53.152;5.846;2023-05-10T06:04:01;6.20;;;5.15;;
52786;SDS011;38661;53.152;5.846;2023-05-10T06:06:27;4.10;;;3.70;;
52786;SDS011;38661;53.152;5.846;2023-05-10T06:08:52;4.35;;;3.95;;
52786;SDS011;38661;53.152;5.846;2023-05-10T06:11:18;5.13;;;3.92;;
52786;SDS011;38661;53.152;5.846;2023-05-10T06:13:46;5.25;;;3.60;;
52786;SDS011;38661;53.152;5.846;2023-05-10T06:16:12;5.18;;;4.68;;
52786;SDS011;38661;53.152;5.846;2023-05-10T06:18:38;5.97;;;4.10;;
52786;SDS011;38661;53.152;5.846;2023-05-10T06:21:04;5.57;;;4.32;;
52786;SDS011;38661;53.152;5.846;2023-05-10T06:23:30;5.00;;;4.40;;
52786;SDS011;38661;53.152;5.846;2023-05-10T06:25:56;5.97;;;5.40;;
52786;SDS011;38661;53.152;5.846;2023-05-10T06:28:21;7.18;;;5.85;;
52786;SDS011;38661;53.152;5.846;2023-05-10T06:30:47;4.38;;;3.88;;
52786;SDS011;38661;53.152;5.846;2023-05-10T06:33:13;5.93;;;4.10;;
52786;SDS011;38661;53.152;5.846;2023-05-10T06:35:38;4.75;;;3.83;;
52786;SDS011;38661;53.152;5.846;2023-05-10T06:38:04;5.43;;;4.05;;
52786;SDS011;38661;53.152;5.846;2023-05-10T06:40:30;6.40;;;5.53;;
52786;SDS011;38661;53.152;5.846;2023-05-10T06:42:55;7.68;;;5.40;;
52786;SDS011;38661;53.152;5.846;2023-05-10T06:45:21;6.53;;;5.35;;
52786;SDS011;38661;53.152;5.846;2023-05-10T06:47:47;8.30;;;6.25;;
52786;SDS011;38661;53.152;5.846;2023-05-10T06:50:12;4.18;;;3.75;;
52786;SDS011;38661;53.152;5.846;2023-05-10T06:52:38;5.40;;;4.07;;
52786;SDS011;38661;53.152;5.846;2023-05-10T06:55:04;5.53;;;3.95;;
52786;SDS011;38661;53.152;5.846;2023-05-10T06:57:31;6.97;;;5.63;;
52786;SDS011;38661;53.152;5.846;2023-05-10T06:59:57;7.82;;;4.95;;
52786;SDS011;38661;53.152;5.846;2023-05-10T07:02:23;12.07;;;6.32;;
52786;SDS011;38661;53.152;5.846;2023-05-10T07:04:49;7.85;;;4.70;;
52786;SDS011;38661;53.152;5.846;2023-05-10T07:07:16;7.80;;;5.40;;
52786;SDS011;38661;53.152;5.846;2023-05-10T07:09:42;7.43;;;4.88;;
52786;SDS011;38661;53.152;5.846;2023-05-10T07:12:08;7.35;;;4.45;;
52786;SDS011;38661;53.152;5.846;2023-05-10T07:14:34;6.47;;;4.32;;
52786;SDS011;38661;53.152;5.846;2023-05-10T07:16:59;7.30;;;5.03;;
52786;SDS011;38661;53.152;5.846;2023-05-10T07:19:25;7.15;;;4.50;;
52786;SDS011;38661;53.152;5.846;2023-05-10T07:21:51;7.55;;;4.32;;
52786;SDS011;38661;53.152;5.846;2023-05-10T07:24:17;7.68;;;4.60;;
52786;SDS011;38661;53.152;5.846;2023-05-10T07:26:43;5.45;;;4.32;;
52786;SDS011;38661;53.152;5.846;2023-05-10T07:29:09;5.03;;;3.63;;
52786;SDS011;38661;53.152;5.846;2023-05-10T07:31:35;4.82;;;3.72;;
52786;SDS011;38661;53.152;5.846;2023-05-10T07:34:00;6.63;;;3.67;;
52786;SDS011;38661;53.152;5.846;2023-05-10T07:36:26;5.50;;;4.05;;
52786;SDS011;38661;53.152;5.846;2023-05-10T07:38:52;6.63;;;3.78;;
52786;SDS011;38661;53.152;5.846;2023-05-10T07:41:18;3.42;;;2.53;;
52786;SDS011;38661;53.152;5.846;2023-05-10T07:43:44;5.45;;;3.67;;
52786;SDS011;38661;53.152;5.846;2023-05-10T07:46:09;6.07;;;4.15;;
52786;SDS011;38661;53.152;5.846;2023-05-10T07:48:36;6.30;;;4.53;;
52786;SDS011;38661;53.152;5.846;2023-05-10T07:51:02;7.25;;;4.72;;
52786;SDS011;38661;53.152;5.846;2023-05-10T07:53:28;6.65;;;5.05;;
52786;SDS011;38661;53.152;5.846;2023-05-10T07:55:54;6.32;;;5.15;;
52786;SDS011;38661;53.152;5.846;2023-05-10T07:58:23;6.82;;;5.38;;
52786;SDS011;38661;53.152;5.846;2023-05-10T08:00:49;7.25;;;5.22;;
52786;SDS011;38661;53.152;5.846;2023-05-10T08:03:15;5.85;;;4.28;;
52786;SDS011;38661;53.152;5.846;2023-05-10T08:05:41;8.13;;;5.30;;
52786;SDS011;38661;53.152;5.846;2023-05-10T08:08:07;9.93;;;6.30;;
52786;SDS011;38661;53.152;5.846;2023-05-10T08:10:32;8.23;;;6.25;;
52786;SDS011;38661;53.152;5.846;2023-05-10T08:12:58;7.75;;;5.57;;
52786;SDS011;38661;53.152;5.846;2023-05-10T08:15:24;11.30;;;5.43;;
52786;SDS011;38661;53.152;5.846;2023-05-10T08:17:53;7.35;;;5.50;;
52786;SDS011;38661;53.152;5.846;2023-05-10T08:20:19;8.77;;;5.75;;
52786;SDS011;38661;53.152;5.846;2023-05-10T08:22:45;6.22;;;5.20;;
52786;SDS011;38661;53.152;5.846;2023-05-10T08:25:11;7.22;;;5.47;;
52786;SDS011;38661;53.152;5.846;2023-05-10T08:27:37;8.32;;;6.18;;
52786;SDS011;38661;53.152;5.846;2023-05-10T08:30:03;7.30;;;5.03;;
52786;SDS011;38661;53.152;5.846;2023-05-10T08:32:29;6.72;;;5.47;;
52786;SDS011;38661;53.152;5.846;2023-05-10T08:34:55;10.73;;;5.60;;
52786;SDS011;38661;53.152;5.846;2023-05-10T08:37:22;9.15;;;5.90;;
52786;SDS011;38661;53.152;5.846;2023-05-10T08:39:48;6.50;;;4.85;;
52786;SDS011;38661;53.152;5.846;2023-05-10T08:42:15;8.80;;;4.90;;
52786;SDS011;38661;53.152;5.846;2023-05-10T08:44:44;6.95;;;5.25;;
52786;SDS011;38661;53.152;5.846;2023-05-10T08:47:13;6.75;;;4.65;;
52786;SDS011;38661;53.152;5.846;2023-05-10T08:49:41;7.28;;;5.47;;
52786;SDS011;38661;53.152;5.846;2023-05-10T08:52:09;7.72;;;5.85;;
52786;SDS011;38661;53.152;5.846;2023-05-10T08:54:36;10.13;;;6.20;;
52786;SDS011;38661;53.152;5.846;2023-05-10T08:57:02;10.73;;;6.97;;
52786;SDS011;38661;53.152;5.846;2023-05-10T08:59:28;10.57;;;6.65;;
52786;SDS011;38661;53.152;5.846;2023-05-10T09:01:56;7.53;;;6.40;;
52786;SDS011;38661;53.152;5.846;2023-05-10T09:04:23;9.75;;;6.97;;
52786;SDS011;38661;53.152;5.846;2023-05-10T09:06:49;10.15;;;7.22;;
52786;SDS011;38661;53.152;5.846;2023-05-10T09:09:15;8.75;;;7.03;;
52786;SDS011;38661;53.152;5.846;2023-05-10T09:11:43;10.85;;;7.50;;
52786;SDS011;38661;53.152;5.846;2023-05-10T09:14:09;11.63;;;7.82;;
52786;SDS011;38661;53.152;5.846;2023-05-10T09:16:37;10.52;;;8.40;;
52786;SDS011;38661;53.152;5.846;2023-05-10T09:19:03;10.57;;;7.03;;
52786;SDS011;38661;53.152;5.846;2023-05-10T09:21:28;10.43;;;7.05;;
52786;SDS011;38661;53.152;5.846;2023-05-10T09:23:56;11.05;;;8.43;;
52786;SDS011;38661;53.152;5.846;2023-05-10T09:26:22;10.10;;;7.30;;
52786;SDS011;38661;53.152;5.846;2023-05-10T09:28:55;11.43;;;7.78;;
52786;SDS011;38661;53.152;5.846;2023-05-10T09:31:22;11.45;;;7.57;;
52786;SDS011;38661;53.152;5.846;2023-05-10T09:33:50;11.15;;;8.05;;
52786;SDS011;38661;53.152;5.846;2023-05-10T09:36:16;10.23;;;7.60;;
52786;SDS011;38661;53.152;5.846;2023-05-10T09:38:49;10.70;;;8.15;;
52786;SDS011;38661;53.152;5.846;2023-05-10T09:41:23;11.63;;;8.63;;
52786;SDS011;38661;53.152;5.846;2023-05-10T09:43:50;9.80;;;7.55;;
52786;SDS011;38661;53.152;5.846;2023-05-10T09:46:21;11.23;;;8.13;;
52786;SDS011;38661;53.152;5.846;2023-05-10T09:48:47;10.48;;;7.45;;
52786;SDS011;38661;53.152;5.846;2023-05-10T09:51:20;11.73;;;7.57;;
52786;SDS011;38661;53.152;5.846;2023-05-10T09:53:47;8.70;;;6.17;;
52786;SDS011;38661;53.152;5.846;2023-05-10T09:56:13;11.43;;;6.70;;
52786;SDS011;38661;53.152;5.846;2023-05-10T09:59:02;9.68;;;6.80;;
52786;SDS011;38661;53.152;5.846;2023-05-10T10:01:28;8.45;;;6.53;;
52786;SDS011;38661;53.152;5.846;2023-05-10T10:03:55;8.43;;;7.38;;
52786;SDS011;38661;53.152;5.846;2023-05-10T10:06:23;9.57;;;7.25;;
52786;SDS011;38661;53.152;5.846;2023-05-10T10:08:49;7.35;;;5.90;;
52786;SDS011;38661;53.152;5.846;2023-05-10T10:11:16;7.72;;;6.13;;
52786;SDS011;38661;53.152;5.846;2023-05-10T10:13:42;8.15;;;5.18;;
52786;SDS011;38661;53.152;5.846;2023-05-10T10:16:08;10.50;;;6.25;;
52786;SDS011;38661;53.152;5.846;2023-05-10T10:18:35;9.52;;;6.22;;
52786;SDS011;38661;53.152;5.846;2023-05-10T10:21:06;8.52;;;5.53;;
52786;SDS011;38661;53.152;5.846;2023-05-10T10:23:36;8.77;;;7.20;;
52786;SDS011;38661;53.152;5.846;2023-05-10T10:26:02;10.35;;;7.80;;
52786;SDS011;38661;53.152;5.846;2023-05-10T10:28:39;10.43;;;7.45;;
52786;SDS011;38661;53.152;5.846;2023-05-10T10:34:35;10.15;;;7.65;;
52786;SDS011;38661;53.152;5.846;2023-05-10T10:37:05;9.60;;;7.22;;
52786;SDS011;38661;53.152;5.846;2023-05-10T10:39:31;8.63;;;6.32;;
52786;SDS011;38661;53.152;5.846;2023-05-10T10:41:58;8.88;;;7.07;;
52786;SDS011;38661;53.152;5.846;2023-05-10T10:49:33;9.07;;;6.55;;
52786;SDS011;38661;53.152;5.846;2023-05-10T10:52:15;11.00;;;7.40;;
52786;SDS011;38661;53.152;5.846;2023-05-10T11:00:36;11.23;;;7.53;;
52786;SDS011;38661;53.152;5.846;2023-05-10T11:03:06;9.77;;;8.02;;
52786;SDS011;38661;53.152;5.846;2023-05-10T11:05:36;9.15;;;7.18;;
52786;SDS011;38661;53.152;5.846;2023-05-10T11:11:01;8.57;;;6.45;;
52786;SDS011;38661;53.152;5.846;2023-05-10T11:13:41;9.07;;;7.75;;
52786;SDS011;38661;53.152;5.846;2023-05-10T11:16:12;10.95;;;8.32;;
52786;SDS011;38661;53.152;5.846;2023-05-10T11:18:51;10.85;;;7.35;;
52786;SDS011;38661;53.152;5.846;2023-05-10T11:21:19;9.98;;;7.40;;
52786;SDS011;38661;53.152;5.846;2023-05-10T11:23:54;9.90;;;8.27;;
52786;SDS011;38661;53.152;5.846;2023-05-10T11:26:22;12.13;;;9.00;;
52786;SDS011;38661;53.152;5.846;2023-05-10T11:28:51;13.70;;;9.23;;
52786;SDS011;38661;53.152;5.846;2023-05-10T11:31:22;12.27;;;8.90;;
52786;SDS011;38661;53.152;5.846;2023-05-10T11:33:49;10.43;;;7.50;;
52786;SDS011;38661;53.152;5.846;2023-05-10T11:36:35;10.85;;;6.60;;
52786;SDS011;38661;53.152;5.846;2023-05-10T11:39:01;8.93;;;6.72;;
52786;SDS011;38661;53.152;5.846;2023-05-10T11:41:28;9.82;;;7.72;;
52786;SDS011;38661;53.152;5.846;2023-05-10T11:43:55;8.00;;;6.22;;
52786;SDS011;38661;53.152;5.846;2023-05-10T11:46:22;7.93;;;6.10;;
52786;SDS011;38661;53.152;5.846;2023-05-10T11:48:50;11.25;;;7.75;;
52786;SDS011;38661;53.152;5.846;2023-05-10T11:51:24;8.82;;;6.25;;
52786;SDS011;38661;53.152;5.846;2023-05-10T11:53:51;9.13;;;7.25;;
52786;SDS011;38661;53.152;5.846;2023-05-10T11:56:18;9.77;;;7.65;;
52786;SDS011;38661;53.152;5.846;2023-05-10T11:58:52;8.77;;;7.13;;
52786;SDS011;38661;53.152;5.846;2023-05-10T12:01:20;9.35;;;7.50;;
52786;SDS011;38661;53.152;5.846;2023-05-10T12:03:46;11.90;;;8.45;;
52786;SDS011;38661;53.152;5.846;2023-05-10T12:06:12;11.25;;;8.07;;
52786;SDS011;38661;53.152;5.846;2023-05-10T12:08:45;11.23;;;9.32;;
52786;SDS011;38661;53.152;5.846;2023-05-10T12:11:12;10.43;;;7.97;;
52786;SDS011;38661;53.152;5.846;2023-05-10T12:13:41;8.82;;;7.93;;
52786;SDS011;38661;53.152;5.846;2023-05-10T12:16:28;10.98;;;7.68;;
52786;SDS011;38661;53.152;5.846;2023-05-10T12:18:58;9.75;;;7.00;;
52786;SDS011;38661;53.152;5.846;2023-05-10T12:21:24;8.57;;;7.30;;
52786;SDS011;38661;53.152;5.846;2023-05-10T12:23:52;9.05;;;7.15;;
52786;SDS011;38661;53.152;5.846;2023-05-10T12:26:22;7.55;;;6.28;;
52786;SDS011;38661;53.152;5.846;2023-05-10T12:28:49;8.40;;;6.95;;
52786;SDS011;38661;53.152;5.846;2023-05-10T12:31:15;8.40;;;7.40;;
52786;SDS011;38661;53.152;5.846;2023-05-10T12:33:42;9.82;;;6.88;;
52786;SDS011;38661;53.152;5.846;2023-05-10T12:36:09;8.68;;;6.95;;
52786;SDS011;38661;53.152;5.846;2023-05-10T12:38:36;10.35;;;7.13;;
52786;SDS011;38661;53.152;5.846;2023-05-10T12:41:05;9.13;;;6.82;;
52786;SDS011;38661;53.152;5.846;2023-05-10T12:43:32;10.60;;;7.50;;
52786;SDS011;38661;53.152;5.846;2023-05-10T12:46:04;10.65;;;7.63;;
52786;SDS011;38661;53.152;5.846;2023-05-10T12:48:30;11.63;;;7.95;;
52786;SDS011;38661;53.152;5.846;2023-05-10T12:50:56;11.15;;;8.00;;
52786;SDS011;38661;53.152;5.846;2023-05-10T12:53:22;13.80;;;9.35;;
52786;SDS011;38661;53.152;5.846;2023-05-10T12:55:48;11.27;;;8.45;;
52786;SDS011;38661;53.152;5.846;2023-05-10T12:58:13;11.50;;;8.38;;
52786;SDS011;38661;53.152;5.846;2023-05-10T13:00:39;9.10;;;7.18;;
52786;SDS011;38661;53.152;5.846;2023-05-10T13:03:05;14.80;;;9.43;;
52786;SDS011;38661;53.152;5.846;2023-05-10T13:05:31;10.48;;;8.05;;
52786;SDS011;38661;53.152;5.846;2023-05-10T13:07:58;9.85;;;7.45;;
52786;SDS011;38661;53.152;5.846;2023-05-10T13:10:23;10.93;;;7.72;;
52786;SDS011;38661;53.152;5.846;2023-05-10T13:12:50;10.75;;;7.57;;
52786;SDS011;38661;53.152;5.846;2023-05-10T13:15:16;11.45;;;8.38;;
52786;SDS011;38661;53.152;5.846;2023-05-10T13:17:42;12.68;;;8.77;;
52786;SDS011;38661;53.152;5.846;2023-05-10T13:20:08;9.90;;;7.78;;
52786;SDS011;38661;53.152;5.846;2023-05-10T13:22:34;12.50;;;8.50;;
52786;SDS011;38661;53.152;5.846;2023-05-10T13:25:01;10.15;;;8.10;;
52786;SDS011;38661;53.152;5.846;2023-05-10T13:27:27;7.63;;;5.53;;
52786;SDS011;38661;53.152;5.846;2023-05-10T13:29:52;10.18;;;6.93;;
52786;SDS011;38661;53.152;5.846;2023-05-10T13:32:18;8.75;;;6.28;;
52786;SDS011;38661;53.152;5.846;2023-05-10T13:34:44;6.97;;;5.60;;
52786;SDS011;38661;53.152;5.846;2023-05-10T13:37:10;7.18;;;6.07;;
52786;SDS011;38661;53.152;5.846;2023-05-10T13:39:35;7.95;;;6.30;;
52786;SDS011;38661;53.152;5.846;2023-05-10T13:42:02;9.30;;;6.35;;
52786;SDS011;38661;53.152;5.846;2023-05-10T13:44:29;8.18;;;6.45;;
52786;SDS011;38661;53.152;5.846;2023-05-10T13:46:55;9.60;;;7.43;;
52786;SDS011;38661;53.152;5.846;2023-05-10T13:49:22;12.70;;;10.10;;
52786;SDS011;38661;53.152;5.846;2023-05-10T13:51:47;14.75;;;9.57;;
52786;SDS011;38661;53.152;5.846;2023-05-10T13:54:13;13.43;;;10.77;;
52786;SDS011;38661;53.152;5.846;2023-05-10T13:56:39;12.65;;;10.00;;
52786;SDS011;38661;53.152;5.846;2023-05-10T13:59:07;11.95;;;10.00;;
52786;SDS011;38661;53.152;5.846;2023-05-10T14:01:33;12.40;;;10.20;;
52786;SDS011;38661;53.152;5.846;2023-05-10T14:03:59;9.77;;;7.45;;
52786;SDS011;38661;53.152;5.846;2023-05-10T14:06:25;10.13;;;9.13;;
52786;SDS011;38661;53.152;5.846;2023-05-10T14:08:52;10.60;;;8.77;;
52786;SDS011;38661;53.152;5.846;2023-05-10T14:11:19;9.77;;;8.30;;
52786;SDS011;38661;53.152;5.846;2023-05-10T14:13:45;11.05;;;9.05;;
52786;SDS011;38661;53.152;5.846;2023-05-10T14:16:10;11.55;;;8.43;;
52786;SDS011;38661;53.152;5.846;2023-05-10T14:18:36;9.43;;;8.43;;
52786;SDS011;38661;53.152;5.846;2023-05-10T14:21:05;8.75;;;6.32;;
52786;SDS011;38661;53.152;5.846;2023-05-10T14:23:31;7.85;;;6.68;;
52786;SDS011;38661;53.152;5.846;2023-05-10T14:25:57;5.82;;;5.18;;
52786;SDS011;38661;53.152;5.846;2023-05-10T14:28:22;6.35;;;5.75;;
52786;SDS011;38661;53.152;5.846;2023-05-10T14:30:49;6.55;;;5.85;;
52786;SDS011;38661;53.152;5.846;2023-05-10T14:33:16;6.38;;;5.78;;
52786;SDS011;38661;53.152;5.846;2023-05-10T14:35:42;7.93;;;6.40;;
52786;SDS011;38661;53.152;5.846;2023-05-10T14:38:11;5.55;;;4.97;;
52786;SDS011;38661;53.152;5.846;2023-05-10T14:40:37;6.28;;;5.68;;
52786;SDS011;38661;53.152;5.846;2023-05-10T14:43:03;6.18;;;5.57;;
52786;SDS011;38661;53.152;5.846;2023-05-10T14:45:29;6.07;;;4.78;;
52786;SDS011;38661;53.152;5.846;2023-05-10T14:47:54;6.68;;;6.07;;
52786;SDS011;38661;53.152;5.846;2023-05-10T14:50:20;6.15;;;4.50;;
52786;SDS011;38661;53.152;5.846;2023-05-10T14:52:46;6.07;;;5.47;;
52786;SDS011;38661;53.152;5.846;2023-05-10T14:55:11;7.68;;;6.88;;
52786;SDS011;38661;53.152;5.846;2023-05-10T14:57:37;7.15;;;6.45;;
52786;SDS011;38661;53.152;5.846;2023-05-10T15:00:03;6.70;;;5.95;;
52786;SDS011;38661;53.152;5.846;2023-05-10T15:02:30;7.40;;;6.70;;
52786;SDS011;38661;53.152;5.846;2023-05-10T15:04:56;7.57;;;6.88;;
52786;SDS011;38661;53.152;5.846;2023-05-10T15:07:22;6.97;;;6.28;;
52786;SDS011;38661;53.152;5.846;2023-05-10T15:09:49;7.50;;;6.38;;
52786;SDS011;38661;53.152;5.846;2023-05-10T15:12:17;10.60;;;7.18;;
52786;SDS011;38661;53.152;5.846;2023-05-10T15:14:43;8.38;;;7.57;;
52786;SDS011;38661;53.152;5.846;2023-05-10T15:17:15;6.95;;;6.28;;
52786;SDS011;38661;53.152;5.846;2023-05-10T15:20:06;6.65;;;6.05;;
52786;SDS011;38661;53.152;5.846;2023-05-10T15:22:35;6.25;;;5.57;;